Time;durP1;ratioP1;P1;durP2;ratioP2;P2;SDS_P1;SDS_P2;PMS_P1;PMS_P2;Temp;Humidity;BMP_temperature;BMP_pressure;BME280_temperature;BME280_humidity;BME280_pressure;Samples;Min_cycle;Max_cycle;Signal;HPM_P1;HPM_P2
2022/02/17 00:00:31;;;;;;;0.20;0.20;;;;;;;9.45;100.00;94356.56;5051249;28;20202;-76
2022/02/17 00:02:57;;;;;;;0.20;0.20;;;;;;;9.42;100.00;94354.31;5050677;28;20174;-76
2022/02/17 00:05:23;;;;;;;0.20;0.20;;;;;;;9.30;100.00;94353.91;5051538;28;20201;-76
2022/02/17 00:07:48;;;;;;;0.10;0.10;;;;;;;9.29;100.00;94352.28;5033461;28;20701;-76
2022/02/17 00:10:14;;;;;;;0.10;0.10;;;;;;;9.32;100.00;94339.78;5051320;28;20162;-77
2022/02/17 00:12:40;;;;;;;0.20;0.20;;;;;;;9.27;100.00;94323.94;5051845;28;20540;-78
2022/02/17 00:15:06;;;;;;;0.20;0.20;;;;;;;9.24;100.00;94313.91;5051213;28;20223;-75
2022/02/17 00:17:31;;;;;;;0.40;0.20;;;;;;;9.19;100.00;94305.88;5051376;28;20182;-75
2022/02/17 00:19:57;;;;;;;0.20;0.20;;;;;;;9.18;100.00;94314.59;5051072;28;20196;-77
2022/02/17 00:22:22;;;;;;;0.10;0.10;;;;;;;9.11;100.00;94302.50;5033425;28;20208;-75
2022/02/17 00:24:47;;;;;;;0.57;0.30;;;;;;;9.05;100.00;94291.03;5050901;28;20186;-75
2022/02/17 00:27:13;;;;;;;0.10;0.10;;;;;;;9.05;100.00;94298.78;5034218;28;20268;-76
2022/02/17 00:29:38;;;;;;;0.40;0.20;;;;;;;9.03;100.00;94287.81;5034142;28;20553;-76
2022/02/17 00:32:04;;;;;;;0.20;0.20;;;;;;;8.98;100.00;94293.47;5049990;28;20190;-76
2022/02/17 00:34:30;;;;;;;0.40;0.20;;;;;;;9.00;100.00;94290.72;5050617;28;20552;-76
2022/02/17 00:36:55;;;;;;;0.43;0.30;;;;;;;9.00;100.00;94303.66;5051706;28;20177;-76
2022/02/17 00:39:20;;;;;;;0.20;0.20;;;;;;;9.00;100.00;94308.84;5051818;28;20190;-77
2022/02/17 00:41:46;;;;;;;0.20;0.20;;;;;;;8.97;100.00;94327.31;5033216;28;20285;-76
2022/02/17 00:44:13;;;;;;;0.87;0.10;;;;;;;8.94;100.00;94317.28;5050293;28;20545;-77
2022/02/17 00:46:38;;;;;;;0.10;0.10;;;;;;;8.89;100.00;94319.56;5051684;28;20623;-76
2022/02/17 00:49:03;;;;;;;0.60;0.20;;;;;;;8.86;100.00;94312.16;5050312;28;20271;-76
2022/02/17 00:51:29;;;;;;;0.40;0.23;;;;;;;8.89;100.00;94314.38;5032927;28;20209;-76
2022/02/17 00:53:54;;;;;;;0.30;0.30;;;;;;;8.87;100.00;94298.22;5050051;28;20204;-76
2022/02/17 00:56:19;;;;;;;0.40;0.20;;;;;;;8.83;100.00;94287.38;5051673;28;20639;-75
2022/02/17 00:58:45;;;;;;;0.20;0.20;;;;;;;8.77;100.00;94280.31;5033568;28;20178;-76
2022/02/17 01:01:10;;;;;;;0.20;0.20;;;;;;;8.75;100.00;94293.41;5050908;28;20209;-76
2022/02/17 01:03:35;;;;;;;0.20;0.20;;;;;;;8.74;100.00;94293.56;5051208;28;20185;-76
2022/02/17 01:06:01;;;;;;;0.10;0.10;;;;;;;8.78;100.00;94307.78;5050253;28;20178;-76
2022/02/17 01:08:26;;;;;;;0.13;0.13;;;;;;;8.83;100.00;94300.31;5050176;28;20236;-76
2022/02/17 01:10:52;;;;;;;0.30;0.20;;;;;;;8.85;100.00;94313.13;5051424;28;20189;-75
2022/02/17 01:13:17;;;;;;;0.90;0.20;;;;;;;8.91;100.00;94309.84;5033023;28;20181;-76
2022/02/17 01:15:43;;;;;;;0.30;0.30;;;;;;;8.93;100.00;94308.72;5050021;28;20170;-76
2022/02/17 01:18:08;;;;;;;0.67;0.20;;;;;;;8.88;100.00;94298.06;5049799;28;20181;-76
2022/02/17 01:20:33;;;;;;;0.27;0.27;;;;;;;8.84;100.00;94285.63;5019342;28;20210;-76
2022/02/17 01:22:59;;;;;;;0.30;0.30;;;;;;;8.80;100.00;94288.53;5019804;28;20187;-75
2022/02/17 01:25:24;;;;;;;0.60;0.10;;;;;;;8.82;100.00;94283.19;5010209;28;20686;-77
2022/02/17 01:27:51;;;;;;;0.30;0.30;;;;;;;8.82;100.00;94295.31;5013535;28;20170;-75
2022/02/17 01:30:17;;;;;;;0.20;0.17;;;;;;;8.86;100.00;94292.25;5029753;28;20632;-76
2022/02/17 01:32:43;;;;;;;0.10;0.10;;;;;;;8.85;100.00;94318.31;5029318;28;20236;-75
2022/02/17 01:35:08;;;;;;;0.20;0.20;;;;;;;8.84;100.00;94321.88;5030016;28;20235;-75
2022/02/17 01:37:34;;;;;;;0.20;0.20;;;;;;;8.80;100.00;94304.06;5029675;28;20552;-75
2022/02/17 01:39:59;;;;;;;0.20;0.20;;;;;;;8.79;100.00;94294.69;5013279;28;20588;-75
2022/02/17 01:42:24;;;;;;;0.30;0.30;;;;;;;8.79;100.00;94294.69;5029181;28;20672;-77
2022/02/17 01:44:49;;;;;;;0.30;0.20;;;;;;;8.80;100.00;94295.50;5028315;28;20182;-75
2022/02/17 01:47:16;;;;;;;0.20;0.20;;;;;;;8.80;100.00;94283.34;5029898;28;20175;-77
2022/02/17 01:49:42;;;;;;;0.27;0.23;;;;;;;8.85;100.00;94293.22;5013303;28;20182;-74
2022/02/17 01:52:09;;;;;;;0.30;0.30;;;;;;;8.83;100.00;94307.28;5029181;28;20198;-75
2022/02/17 01:54:34;;;;;;;0.13;0.10;;;;;;;8.89;100.00;94298.84;5029849;28;20190;-75
2022/02/17 01:57:04;;;;;;;0.30;0.30;;;;;;;8.85;100.00;94295.00;5029703;28;20182;-76
2022/02/17 01:59:30;;;;;;;0.20;0.20;;;;;;;8.85;100.00;94287.22;5012964;28;20198;-76
2022/02/17 02:01:55;;;;;;;0.20;0.20;;;;;;;8.92;100.00;94295.91;5012582;28;20205;-75
2022/02/17 02:04:20;;;;;;;0.10;0.10;;;;;;;8.92;100.00;94307.13;5029875;28;20194;-76
2022/02/17 02:06:46;;;;;;;0.10;0.10;;;;;;;8.88;100.00;94307.59;5029581;28;20182;-75
2022/02/17 02:09:16;;;;;;;0.10;0.10;;;;;;;8.87;100.00;94283.50;5029741;28;20706;-76
2022/02/17 02:11:41;;;;;;;0.10;0.10;;;;;;;8.91;100.00;94286.53;5012939;28;20206;-75
2022/02/17 02:14:14;;;;;;;0.23;0.23;;;;;;;8.86;100.00;94292.25;5013180;28;20187;-76
2022/02/17 02:16:39;;;;;;;0.10;0.10;;;;;;;8.84;100.00;94295.97;5013174;28;20206;-75
2022/02/17 02:19:04;;;;;;;0.17;0.17;;;;;;;8.79;100.00;94305.03;5012961;28;20271;-75
2022/02/17 02:21:29;;;;;;;0.20;0.20;;;;;;;8.84;100.00;94281.25;5028825;28;20210;-75
2022/02/17 02:23:55;;;;;;;0.10;0.10;;;;;;;8.90;100.00;94284.94;5029396;28;20182;-75
2022/02/17 02:26:20;;;;;;;0.30;0.30;;;;;;;8.87;100.00;94280.09;5029283;28;20190;-76
2022/02/17 02:28:45;;;;;;;0.10;0.10;;;;;;;8.91;100.00;94291.72;5029335;28;20187;-75
2022/02/17 02:31:11;;;;;;;0.10;0.10;;;;;;;8.84;100.00;94303.75;5029965;28;20273;-76
2022/02/17 02:33:36;;;;;;;0.30;0.30;;;;;;;8.92;100.00;94301.09;5033065;28;20250;-76
2022/02/17 02:36:01;;;;;;;0.20;0.20;;;;;;;8.97;100.00;94275.53;5033070;28;20820;-76
2022/02/17 02:38:27;;;;;;;0.33;0.30;;;;;;;8.97;100.00;94268.56;5034217;28;20580;-76
2022/02/17 02:40:53;;;;;;;0.10;0.10;;;;;;;9.01;100.00;94276.78;5032765;28;20214;-76
2022/02/17 02:43:18;;;;;;;0.30;0.30;;;;;;;9.06;100.00;94277.09;5030772;28;20787;-76
2022/02/17 02:45:44;;;;;;;0.20;0.10;;;;;;;9.10;100.00;94265.44;5034141;28;20538;-75
2022/02/17 02:48:10;;;;;;;0.10;0.10;;;;;;;9.14;100.00;94248.56;5016516;28;20171;-75
2022/02/17 02:50:36;;;;;;;0.20;0.20;;;;;;;9.14;100.00;94245.97;5032539;28;20203;-75
2022/02/17 02:53:02;;;;;;;0.10;0.10;;;;;;;9.21;100.00;94256.47;5031954;28;20277;-76
2022/02/17 02:55:28;;;;;;;0.63;0.20;;;;;;;9.28;100.00;94253.03;5032813;28;20221;-76
2022/02/17 02:57:53;;;;;;;0.10;0.10;;;;;;;9.35;100.00;94228.03;5033028;28;20209;-75
2022/02/17 03:00:18;;;;;;;0.20;0.20;;;;;;;9.36;100.00;94234.84;5032500;28;20285;-75
2022/02/17 03:02:44;;;;;;;0.20;0.20;;;;;;;9.50;100.00;94235.06;5032166;28;20289;-75
2022/02/17 03:05:11;;;;;;;0.20;0.20;;;;;;;9.56;100.00;94234.41;5015857;28;20666;-75
2022/02/17 03:07:36;;;;;;;0.10;0.10;;;;;;;9.59;100.00;94240.03;5032437;28;20194;-76
2022/02/17 03:10:02;;;;;;;0.20;0.20;;;;;;;9.60;100.00;94230.47;5032543;28;20178;-75
2022/02/17 03:12:27;;;;;;;0.20;0.20;;;;;;;9.65;100.00;94228.16;5033273;28;20209;-75
2022/02/17 03:14:53;;;;;;;0.20;0.20;;;;;;;9.63;100.00;94241.31;5032509;28;20179;-76
2022/02/17 03:17:18;;;;;;;0.23;0.20;;;;;;;9.79;100.00;94235.16;5015886;28;20186;-76
2022/02/17 03:19:43;;;;;;;0.97;0.10;;;;;;;9.79;100.00;94244.72;5033440;28;20230;-76
2022/02/17 03:22:09;;;;;;;0.10;0.10;;;;;;;9.82;100.00;94242.63;5014919;28;20734;-75
2022/02/17 03:24:34;;;;;;;0.30;0.20;;;;;;;9.85;99.46;94239.66;5033440;28;20605;-76
2022/02/17 03:27:00;;;;;;;0.10;0.10;;;;;;;9.88;99.19;94226.34;5032097;28;20270;-76
2022/02/17 03:29:25;;;;;;;0.10;0.10;;;;;;;9.86;98.89;94210.16;5032021;28;20636;-76
2022/02/17 03:31:50;;;;;;;0.10;0.10;;;;;;;9.89;98.79;94221.97;5032680;28;20210;-76
2022/02/17 03:34:16;;;;;;;0.20;0.10;;;;;;;9.90;97.94;94232.19;5033166;28;20179;-75
2022/02/17 03:36:41;;;;;;;0.10;0.10;;;;;;;9.98;97.01;94230.47;5032125;28;20187;-75
2022/02/17 03:39:06;;;;;;;0.10;0.10;;;;;;;10.04;96.20;94232.38;5032056;28;20656;-75
2022/02/17 03:41:32;;;;;;;0.10;0.10;;;;;;;10.12;95.35;94255.66;5030915;28;20252;-75
2022/02/17 03:43:57;;;;;;;0.20;0.20;;;;;;;10.01;96.26;94210.19;5013663;28;20259;-76
2022/02/17 03:46:23;;;;;;;0.77;0.20;;;;;;;10.00;95.71;94231.94;5031727;28;20317;-76
2022/02/17 03:48:48;;;;;;;0.10;0.10;;;;;;;10.05;94.13;94218.41;5015155;28;20593;-76
2022/02/17 03:51:13;;;;;;;0.20;0.20;;;;;;;10.10;93.11;94222.09;5032240;28;20656;-76
2022/02/17 03:53:38;;;;;;;0.13;0.13;;;;;;;10.15;93.20;94239.72;5032624;28;20194;-76
2022/02/17 03:56:04;;;;;;;0.20;0.20;;;;;;;10.05;94.57;94242.56;5015151;28;20189;-76
2022/02/17 04:01:13;;;;;;;0.10;0.10;;;;;;;9.93;95.17;94244.78;5030868;28;20718;-76
2022/02/17 04:03:38;;;;;;;0.03;0.03;;;;;;;10.05;92.55;94236.56;5032644;28;20183;-77
2022/02/17 04:06:04;;;;;;;0.10;0.10;;;;;;;10.04;92.97;94253.94;5032671;28;20205;-77
2022/02/17 04:08:29;;;;;;;0.20;0.20;;;;;;;9.91;95.37;94254.53;5031638;28;20202;-77
2022/02/17 04:10:54;;;;;;;0.20;0.20;;;;;;;9.78;98.28;94274.22;5032320;28;20624;-75
2022/02/17 04:13:20;;;;;;;0.10;0.10;;;;;;;9.71;100.00;94286.28;5032042;28;20232;-75
2022/02/17 04:15:45;;;;;;;0.33;0.20;;;;;;;9.67;100.00;94288.41;5031093;28;20178;-75
2022/02/17 04:18:10;;;;;;;0.20;0.20;;;;;;;9.54;100.00;94301.13;5032311;28;20265;-75
2022/02/17 04:20:36;;;;;;;0.10;0.10;;;;;;;9.44;100.00;94300.53;5032190;28;20210;-76
2022/02/17 04:23:01;;;;;;;0.10;0.10;;;;;;;9.40;100.00;94291.50;5031764;28;20183;-76
2022/02/17 04:25:26;;;;;;;0.20;0.20;;;;;;;9.38;100.00;94291.69;5032183;28;20240;-76
2022/02/17 04:27:52;;;;;;;0.37;0.10;;;;;;;9.38;100.00;94283.09;5030845;28;20183;-77
2022/02/17 04:30:17;;;;;;;0.20;0.20;;;;;;;9.38;100.00;94307.22;5031959;28;20198;-76
2022/02/17 04:32:42;;;;;;;0.20;0.20;;;;;;;9.34;100.00;94292.97;5031364;28;20545;-76
2022/02/17 04:35:08;;;;;;;0.30;0.30;;;;;;;9.28;100.00;94297.06;5030936;28;20186;-76
2022/02/17 04:37:33;;;;;;;0.10;0.10;;;;;;;9.24;100.00;94295.78;5030924;28;20186;-76
2022/02/17 04:40:00;;;;;;;0.23;0.20;;;;;;;9.39;100.00;94295.88;5030576;28;20668;-76
2022/02/17 04:42:26;;;;;;;0.20;0.10;;;;;;;9.41;100.00;94285.34;5013653;28;20206;-75
2022/02/17 04:44:52;;;;;;;0.20;0.20;;;;;;;9.46;100.00;94288.25;5029111;28;20189;-75
2022/02/17 04:47:17;;;;;;;0.20;0.10;;;;;;;9.38;100.00;94286.50;5030613;28;20186;-76
2022/02/17 04:49:43;;;;;;;0.20;0.20;;;;;;;9.35;100.00;94290.22;5030612;28;20522;-76
2022/02/17 04:52:08;;;;;;;0.10;0.10;;;;;;;9.36;100.00;94310.00;5029876;28;20199;-76
2022/02/17 04:54:34;;;;;;;0.20;0.20;;;;;;;9.36;100.00;94304.81;5029921;28;20289;-76
2022/02/17 04:57:00;;;;;;;0.13;0.13;;;;;;;9.29;100.00;94292.69;5021915;28;20222;-76
2022/02/17 04:59:26;;;;;;;0.60;0.20;;;;;;;9.30;100.00;94333.16;5027690;28;20598;-77
2022/02/17 05:01:51;;;;;;;0.20;0.10;;;;;;;9.25;100.00;94344.03;5028003;28;20198;-76
2022/02/17 05:04:17;;;;;;;0.83;0.20;;;;;;;9.24;100.00;94333.84;5029585;28;20187;-76
2022/02/17 05:06:42;;;;;;;0.17;0.17;;;;;;;9.19;100.00;94324.00;5029511;28;20183;-77
2022/02/17 05:09:07;;;;;;;0.47;0.20;;;;;;;9.23;100.00;94345.97;5029537;28;20210;-76
2022/02/17 05:11:33;;;;;;;0.30;0.30;;;;;;;9.21;100.00;94371.25;5028781;28;20199;-76
2022/02/17 05:13:58;;;;;;;0.23;0.23;;;;;;;9.16;100.00;94367.53;5029340;28;20245;-76
2022/02/17 05:16:24;;;;;;;0.47;0.30;;;;;;;9.12;100.00;94387.78;5029460;28;20182;-76
2022/02/17 05:18:49;;;;;;;0.73;0.40;;;;;;;9.03;100.00;94394.78;5030610;28;20189;-76
2022/02/17 05:21:15;;;;;;;0.93;0.30;;;;;;;9.02;100.00;94426.03;5028387;28;20675;-76
2022/02/17 05:23:40;;;;;;;1.73;0.20;;;;;;;8.96;100.00;94406.78;5027793;28;20670;-76
2022/02/17 05:26:05;;;;;;;0.20;0.20;;;;;;;8.93;100.00;94429.59;5029198;28;20174;-76
2022/02/17 05:28:31;;;;;;;0.43;0.30;;;;;;;8.87;100.00;94438.03;5012751;28;20232;-76
2022/02/17 05:30:56;;;;;;;3.70;0.70;;;;;;;8.80;100.00;94436.06;5030443;28;20194;-76
2022/02/17 05:33:21;;;;;;;2.00;0.40;;;;;;;8.75;100.00;94425.41;5028704;28;20258;-76
2022/02/17 05:35:47;;;;;;;1.30;0.40;;;;;;;8.74;99.24;94461.78;5029084;28;20183;-76
2022/02/17 05:38:13;;;;;;;1.33;0.67;;;;;;;8.76;98.13;94450.34;5029169;28;20178;-76
2022/02/17 05:40:38;;;;;;;3.47;0.63;;;;;;;8.68;99.18;94463.28;5030664;28;20216;-76
2022/02/17 05:43:05;;;;;;;2.40;0.70;;;;;;;8.70;99.62;94466.50;5028651;28;20186;-76
2022/02/17 05:45:30;;;;;;;1.80;0.70;;;;;;;8.70;99.78;94463.91;5029027;28;20178;-76
2022/02/17 05:47:56;;;;;;;3.30;0.90;;;;;;;8.67;99.71;94466.03;5029281;28;20193;-76
2022/02/17 05:50:22;;;;;;;3.63;0.83;;;;;;;8.60;98.88;94475.41;5030797;28;20668;-75
2022/02/17 05:52:48;;;;;;;1.87;0.60;;;;;;;8.61;97.90;94487.38;5028950;28;20576;-76
2022/02/17 05:55:14;;;;;;;2.07;0.70;;;;;;;8.62;96.69;94481.22;5030359;28;20647;-77
2022/02/17 05:57:41;;;;;;;4.90;1.10;;;;;;;8.56;96.79;94499.97;5030063;28;20233;-77
2022/02/17 06:00:07;;;;;;;6.77;1.30;;;;;;;8.56;97.67;94505.16;5029645;28;20209;-77
2022/02/17 06:02:32;;;;;;;5.70;0.97;;;;;;;8.49;96.21;94518.75;5012638;28;20707;-77
2022/02/17 06:04:58;;;;;;;5.27;1.13;;;;;;;8.56;96.56;94518.88;5029605;28;20174;-77
2022/02/17 06:07:23;;;;;;;6.13;1.50;;;;;;;8.46;97.43;94520.81;5032543;28;20174;-76
2022/02/17 06:09:48;;;;;;;4.90;1.17;;;;;;;8.42;97.39;94527.28;5034833;28;20539;-76
2022/02/17 06:12:14;;;;;;;7.03;1.50;;;;;;;8.44;97.75;94541.69;5032890;28;20194;-75
2022/02/17 06:14:39;;;;;;;7.07;1.57;;;;;;;8.40;95.66;94560.28;5033632;28;20170;-76
2022/02/17 06:17:05;;;;;;;10.17;2.30;;;;;;;8.36;95.55;94556.38;5033618;28;20174;-76
2022/02/17 06:19:30;;;;;;;5.90;1.37;;;;;;;8.35;95.49;94567.69;5033548;28;20178;-76
2022/02/17 06:21:55;;;;;;;8.70;1.50;;;;;;;8.28;94.75;94544.19;5032722;28;20549;-76
2022/02/17 06:24:21;;;;;;;7.57;1.70;;;;;;;8.24;94.76;94550.66;5033409;28;20571;-77
2022/02/17 06:26:46;;;;;;;5.83;1.50;;;;;;;8.23;95.47;94559.41;5016713;28;20187;-76
2022/02/17 06:29:11;;;;;;;6.53;1.77;;;;;;;8.23;95.74;94544.69;5033223;28;20183;-77
2022/02/17 06:31:37;;;;;;;8.23;1.57;;;;;;;8.15;96.63;94580.06;5034284;28;20190;-78
2022/02/17 06:34:02;;;;;;;13.40;2.43;;;;;;;8.13;96.30;94585.38;5033909;28;20670;-79
2022/02/17 06:36:27;;;;;;;7.73;2.23;;;;;;;8.01;95.98;94599.53;5018739;28;20198;-78
2022/02/17 06:38:53;;;;;;;11.93;1.73;;;;;;;8.03;97.00;94605.38;5040337;28;20178;-78
2022/02/17 06:41:20;;;;;;;12.00;2.53;;;;;;;8.05;95.29;94595.69;5022053;28;20210;-78
2022/02/17 06:43:45;;;;;;;7.37;2.10;;;;;;;8.08;93.90;94597.97;5018317;28;20183;-78
2022/02/17 06:46:11;;;;;;;6.17;1.97;;;;;;;8.09;92.69;94604.75;5024988;28;20201;-79
2022/02/17 06:48:36;;;;;;;10.50;2.57;;;;;;;8.07;91.78;94617.03;5003743;28;20229;-79
2022/02/17 06:51:01;;;;;;;10.73;1.80;;;;;;;8.01;89.38;94620.22;5021044;28;20233;-77
2022/02/17 06:53:26;;;;;;;6.17;2.00;;;;;;;8.03;91.23;94644.16;5031987;28;20194;-77
2022/02/17 06:55:52;;;;;;;8.13;1.87;;;;;;;8.00;89.75;94630.72;5014604;28;20188;-77
2022/02/17 06:58:17;;;;;;;10.27;2.30;;;;;;;8.00;89.25;94647.03;5032434;28;20171;-76
2022/02/17 07:00:43;;;;;;;8.23;2.10;;;;;;;8.01;89.95;94640.09;5014718;28;20582;-77
2022/02/17 07:03:08;;;;;;;10.63;2.20;;;;;;;8.04;89.34;94648.38;4995935;28;20175;-77
2022/02/17 07:05:34;;;;;;;12.03;3.30;;;;;;;8.03;89.80;94658.84;5012660;28;20180;-77
2022/02/17 07:08:00;;;;;;;7.07;2.17;;;;;;;8.06;90.00;94649.03;5013906;28;20556;-77
2022/02/17 07:13:10;;;;;;;14.73;2.70;;;;;;;8.05;90.43;94672.47;5029361;28;20263;-77
2022/02/17 07:15:35;;;;;;;9.57;2.70;;;;;;;8.00;90.21;94675.50;5028478;28;20341;-77
2022/02/17 07:18:08;;;;;;;8.20;2.00;;;;;;;8.03;90.86;94662.25;5011941;28;20191;-77
2022/02/17 07:20:36;;;;;;;6.80;1.93;;;;;;;8.06;88.97;94674.06;5015068;28;20959;-77
2022/02/17 07:23:02;;;;;;;7.07;2.00;;;;;;;8.17;85.09;94660.88;5015146;28;20330;-77
2022/02/17 07:25:27;;;;;;;9.77;3.00;;;;;;;8.16;86.66;94660.06;5031931;28;20193;-77
2022/02/17 07:27:52;;;;;;;8.67;1.70;;;;;;;8.19;85.77;94669.28;5028660;28;20563;-78
2022/02/17 07:30:18;;;;;;;9.87;2.30;;;;;;;8.22;87.48;94681.94;5040093;28;20178;-76
2022/02/17 07:32:44;;;;;;;9.20;2.20;;;;;;;8.19;86.95;94669.28;5004218;28;20183;-77
2022/02/17 07:35:10;;;;;;;6.40;1.97;;;;;;;8.11;85.97;94671.81;5012677;28;20206;-77
2022/02/17 07:37:36;;;;;;;10.73;2.97;;;;;;;8.16;84.99;94696.28;5011374;28;20185;-77
2022/02/17 07:40:01;;;;;;;5.43;1.83;;;;;;;8.15;85.47;94681.72;5015301;28;20618;-76
2022/02/17 07:42:26;;;;;;;12.33;2.50;;;;;;;8.24;83.47;94695.50;4994881;28;20203;-77
2022/02/17 07:44:56;;;;;;;5.37;1.90;;;;;;;8.39;83.03;94698.34;5021580;28;20182;-77
2022/02/17 07:47:25;;;;;;;5.53;1.73;;;;;;;8.47;82.36;94699.19;5033360;28;20179;-77
2022/02/17 07:49:54;;;;;;;7.53;1.73;;;;;;;8.60;82.98;94714.28;5031127;28;20170;-78
2022/02/17 07:52:19;;;;;;;10.60;2.20;;;;;;;8.57;83.30;94721.53;5032009;28;20197;-77
2022/02/17 07:54:45;;;;;;;8.20;2.00;;;;;;;8.64;82.93;94694.88;5029693;28;20190;-76
2022/02/17 07:57:10;;;;;;;9.63;1.83;;;;;;;8.51;83.05;94705.69;5031755;28;20200;-77
2022/02/17 07:59:36;;;;;;;7.40;1.83;;;;;;;8.56;82.31;94707.00;5010723;28;20180;-76
2022/02/17 08:02:01;;;;;;;7.33;2.30;;;;;;;8.60;82.72;94716.88;4995315;28;20223;-77
2022/02/17 08:04:26;;;;;;;12.87;1.93;;;;;;;8.66;82.21;94724.03;5012272;28;20229;-77
2022/02/17 08:06:52;;;;;;;7.23;2.53;;;;;;;8.65;80.47;94740.50;4994955;28;20187;-77
2022/02/17 08:09:17;;;;;;;7.43;1.60;;;;;;;8.50;80.00;94745.47;5011787;28;20594;-77
2022/02/17 08:11:42;;;;;;;6.83;1.67;;;;;;;8.61;80.05;94754.75;5011564;28;20198;-76
2022/02/17 08:14:08;;;;;;;7.67;1.77;;;;;;;8.69;79.53;94749.59;5014326;28;20214;-77
2022/02/17 08:16:33;;;;;;;6.77;2.10;;;;;;;8.67;77.24;94777.41;5016129;28;20186;-77
2022/02/17 08:18:58;;;;;;;7.93;2.00;;;;;;;8.73;76.29;94776.78;4996197;28;20640;-77
2022/02/17 08:21:24;;;;;;;9.10;2.40;;;;;;;8.83;76.47;94786.22;5027790;28;20215;-77
2022/02/17 08:23:49;;;;;;;11.80;2.67;;;;;;;8.76;76.26;94804.97;5033117;28;20186;-76
2022/02/17 08:26:14;;;;;;;10.23;2.33;;;;;;;8.62;74.67;94802.13;5019631;28;20653;-77
2022/02/17 08:28:39;;;;;;;10.50;2.37;;;;;;;8.42;72.70;94812.69;5013497;28;20179;-76
2022/02/17 08:31:05;;;;;;;11.90;3.53;;;;;;;8.48;73.38;94808.66;4998271;28;20696;-76
2022/02/17 08:33:31;;;;;;;9.90;2.37;;;;;;;8.42;70.71;94797.16;4997134;28;20179;-76
2022/02/17 08:35:56;;;;;;;8.67;2.30;;;;;;;8.40;71.21;94829.34;5012669;28;20197;-77
2022/02/17 08:38:29;;;;;;;11.80;2.33;;;;;;;8.38;70.80;94813.13;5013828;28;20191;-78
2022/02/17 08:40:54;;;;;;;12.50;2.37;;;;;;;8.21;71.28;94805.22;5022818;28;20210;-76
2022/02/17 08:43:19;;;;;;;11.37;2.90;;;;;;;8.15;71.15;94808.44;5031728;28;20175;-77
2022/02/17 08:45:45;;;;;;;10.50;2.83;;;;;;;8.09;70.70;94808.22;5014016;28;20183;-77
2022/02/17 08:48:11;;;;;;;14.77;3.00;;;;;;;8.10;71.35;94826.16;5016401;28;20214;-77
2022/02/17 08:50:39;;;;;;;11.20;3.03;;;;;;;8.09;71.86;94832.31;5028121;28;20205;-77
2022/02/17 08:53:04;;;;;;;14.33;2.90;;;;;;;8.15;72.47;94818.78;4996932;28;20179;-77
2022/02/17 08:55:30;;;;;;;15.83;3.43;;;;;;;8.39;71.75;94841.47;5027630;28;20530;-77
2022/02/17 08:57:55;;;;;;;16.37;3.20;;;;;;;8.46;71.48;94841.66;5013838;28;20175;-77
2022/02/17 09:00:21;;;;;;;13.63;3.13;;;;;;;8.54;71.97;94843.50;5013994;28;20210;-78
2022/02/17 09:02:46;;;;;;;13.00;3.03;;;;;;;8.53;71.90;94847.84;5014850;28;20183;-77
2022/02/17 09:05:12;;;;;;;15.20;2.83;;;;;;;8.47;72.07;94866.56;5031653;28;20186;-77
2022/02/17 09:07:37;;;;;;;9.63;2.70;;;;;;;8.26;71.87;94864.28;5031195;28;20197;-77
2022/02/17 09:10:04;;;;;;;11.80;3.07;;;;;;;8.19;71.19;94866.66;5015617;28;20174;-77
2022/02/17 09:12:30;;;;;;;15.90;3.37;;;;;;;8.11;72.66;94873.53;4996735;28;20216;-76
2022/02/17 09:14:55;;;;;;;14.07;3.30;;;;;;;8.12;74.47;94857.84;5011874;28;20185;-77
2022/02/17 09:17:21;;;;;;;14.47;3.10;;;;;;;8.17;74.94;94873.75;4997924;28;20191;-77
2022/02/17 09:19:46;;;;;;;10.50;3.10;;;;;;;8.09;72.96;94875.47;5008832;28;20230;-77
2022/02/17 09:22:11;;;;;;;12.80;3.00;;;;;;;8.12;73.75;94850.09;5030841;28;20212;-77
2022/02/17 09:24:37;;;;;;;16.73;3.73;;;;;;;7.95;71.11;94894.88;5013924;28;20186;-76
2022/02/17 09:27:03;;;;;;;23.10;4.20;;;;;;;7.86;70.57;94890.59;5030839;28;20232;-77
2022/02/17 09:29:29;;;;;;;19.37;3.80;;;;;;;7.77;70.63;94881.13;5024718;28;20267;-77
2022/02/17 09:31:54;;;;;;;18.73;3.80;;;;;;;7.79;70.06;94879.22;5014004;28;20286;-76
2022/02/17 09:34:19;;;;;;;16.43;3.97;;;;;;;7.74;70.24;94900.34;5026317;28;20194;-78
2022/02/17 09:36:44;;;;;;;15.03;3.10;;;;;;;7.81;70.80;94910.91;5005566;28;20715;-76
2022/02/17 09:39:10;;;;;;;18.67;3.83;;;;;;;7.56;70.29;94895.13;5029375;28;20179;-77
2022/02/17 09:41:35;;;;;;;19.27;3.83;;;;;;;7.48;72.92;94889.88;5013024;28;20269;-78
2022/02/17 09:44:07;;;;;;;18.87;3.80;;;;;;;7.59;73.38;94915.50;5013544;28;20187;-79
2022/02/17 09:46:33;;;;;;;21.47;3.90;;;;;;;7.63;71.58;94891.03;5026319;28;20210;-78
2022/02/17 09:49:01;;;;;;;15.60;3.87;;;;;;;7.75;73.25;94901.16;5017088;28;20273;-76
2022/02/17 09:51:31;;;;;;;14.47;3.83;;;;;;;7.86;69.86;94893.16;5029623;28;20289;-77
2022/02/17 09:53:56;;;;;;;18.37;3.10;;;;;;;7.96;69.52;94888.78;5013571;28;20664;-77
2022/02/17 09:56:25;;;;;;;12.17;3.10;;;;;;;7.85;70.31;94888.97;5004861;28;20199;-77
2022/02/17 09:58:54;;;;;;;22.40;4.97;;;;;;;7.72;74.85;94904.84;5010712;28;20183;-76
2022/02/17 10:01:26;;;;;;;19.67;5.00;;;;;;;7.49;78.61;94927.66;5010684;28;20623;-76
2022/02/17 10:04:09;;;;;;;22.80;5.73;;;;;;;7.24;80.20;94915.41;5015224;28;20194;-78
2022/02/17 10:06:43;;;;;;;20.17;5.43;;;;;;;6.97;82.52;94924.75;5031392;28;20532;-76
2022/02/17 10:09:09;;;;;;;19.53;4.33;;;;;;;6.84;83.29;94921.69;5030733;28;20681;-78
2022/02/17 10:11:34;;;;;;;17.60;4.37;;;;;;;6.85;84.19;94928.47;5029754;28;20198;-75
2022/02/17 10:14:05;;;;;;;15.73;4.10;;;;;;;7.08;82.46;94942.66;5028116;28;20569;-78
2022/02/17 10:16:50;;;;;;;14.23;3.67;;;;;;;7.21;79.91;94903.59;5030982;28;20174;-78
2022/02/17 10:19:15;;;;;;;14.67;3.77;;;;;;;7.34;78.69;94929.94;5026450;28;20186;-78
2022/02/17 10:21:40;;;;;;;14.50;3.60;;;;;;;7.38;79.07;94935.63;5012256;28;20215;-78
2022/02/17 10:24:05;;;;;;;14.63;3.33;;;;;;;7.53;78.10;94933.38;4999189;28;20272;-78
2022/02/17 10:26:31;;;;;;;13.47;2.90;;;;;;;7.47;77.88;94926.19;5032808;28;20183;-78
2022/02/17 10:28:59;;;;;;;19.00;4.33;;;;;;;7.48;76.13;94933.81;5029110;28;20183;-78
2022/02/17 10:31:24;;;;;;;12.27;2.77;;;;;;;7.42;76.51;94925.81;5030656;28;20198;-78
2022/02/17 10:33:52;;;;;;;18.17;3.90;;;;;;;7.52;74.71;94924.00;5029909;28;20185;-77
2022/02/17 10:36:31;;;;;;;15.80;3.17;;;;;;;7.54;75.27;94935.00;4994741;28;20187;-77
2022/02/17 10:39:22;;;;;;;15.93;3.10;;;;;;;7.63;75.25;94924.63;5029527;28;20183;-76
2022/02/17 10:41:56;;;;;;;13.87;3.80;;;;;;;7.71;76.34;94942.00;5009709;28;20207;-77
2022/02/17 10:44:27;;;;;;;13.83;2.80;;;;;;;7.70;71.94;94936.97;5012534;28;20186;-77
2022/02/17 10:46:52;;;;;;;16.67;3.13;;;;;;;7.74;71.67;94946.03;5029041;28;20559;-77
2022/02/17 10:49:19;;;;;;;18.27;3.43;;;;;;;7.66;69.94;94944.19;5028473;28;20201;-78
2022/02/17 10:51:45;;;;;;;16.53;3.37;;;;;;;7.81;70.33;94949.69;4993014;28;20237;-77
2022/02/17 10:54:11;;;;;;;15.50;2.80;;;;;;;7.91;69.24;94948.66;5014266;28;20198;-77
2022/02/17 10:56:38;;;;;;;11.17;2.87;;;;;;;8.13;68.25;94956.97;5031533;28;20190;-77
2022/02/17 11:00:00;;;;;;;17.57;3.00;;;;;;;8.01;68.00;94946.00;5013349;28;20261;-77
2022/02/17 11:01:55;;;;;;;14.53;2.93;;;;;;;7.99;68.46;94955.69;5012294;28;20231;-77
2022/02/17 11:04:20;;;;;;;16.00;3.00;;;;;;;7.99;67.78;94991.88;5030146;28;20649;-77
2022/02/17 11:06:46;;;;;;;14.93;3.53;;;;;;;8.00;65.40;94959.09;4996767;28;20302;-77
2022/02/17 11:09:11;;;;;;;21.07;3.80;;;;;;;8.00;67.32;94953.91;5029216;28;20210;-77
2022/02/17 11:11:37;;;;;;;13.97;3.30;;;;;;;7.93;65.03;94967.41;5031752;28;20680;-77
2022/02/17 11:14:02;;;;;;;18.33;4.43;;;;;;;7.99;66.91;94965.22;5031407;28;20182;-77
2022/02/17 11:16:27;;;;;;;13.83;2.83;;;;;;;8.00;65.39;94951.34;5032424;28;20186;-77
2022/02/17 11:18:54;;;;;;;16.93;3.80;;;;;;;8.20;65.20;94969.16;5030567;28;20228;-77
2022/02/17 11:21:20;;;;;;;12.90;4.17;;;;;;;8.35;64.40;94981.63;5013985;28;20211;-77
2022/02/17 11:23:46;;;;;;;11.93;3.47;;;;;;;8.24;61.55;94980.84;5008094;28;20237;-77
2022/02/17 11:26:23;;;;;;;15.87;3.53;;;;;;;8.43;62.18;94986.88;5032988;28;20644;-77
2022/02/17 11:28:49;;;;;;;14.23;3.13;;;;;;;8.48;61.56;94979.44;5015776;28;20174;-76
2022/02/17 11:31:14;;;;;;;15.97;3.80;;;;;;;8.55;61.96;94988.25;5015655;28;20712;-77
2022/02/17 11:33:41;;;;;;;18.10;4.63;;;;;;;8.69;61.15;94982.56;5006106;28;20186;-77
2022/02/17 11:36:24;;;;;;;16.17;3.67;;;;;;;8.92;60.85;94992.44;5012546;28;20585;-76